createdAt,value
2018-08-04T00:01:55.862Z,97578.95
2018-08-04T00:04:24.323Z,97577.63
2018-08-04T00:06:52.784Z,97576.35
2018-08-04T00:09:21.241Z,97579.80
2018-08-04T00:11:49.732Z,97566.46
2018-08-04T00:14:18.196Z,97568.17
2018-08-04T00:16:46.671Z,97570.34
2018-08-04T00:19:15.118Z,97570.75
2018-08-04T00:21:43.681Z,97475.25
2018-08-04T00:24:12.127Z,97568.59
2018-08-04T00:26:40.590Z,97570.34
2018-08-04T00:29:09.073Z,97566.46
2018-08-04T00:31:37.532Z,97569.87
2018-08-04T00:34:05.996Z,97566.00
2018-08-04T00:36:34.500Z,97569.46
2018-08-04T00:39:03.015Z,97572.47
2018-08-04T00:41:31.464Z,97568.59
2018-08-04T00:44:00.808Z,97569.05
2018-08-04T00:46:29.269Z,97563.42
2018-08-04T00:48:57.727Z,97567.75
2018-08-04T00:51:26.193Z,97566.88
2018-08-04T00:53:54.749Z,97561.70
2018-08-04T00:56:23.216Z,97566.00
2018-08-04T00:58:51.694Z,97563.00
2018-08-04T01:01:20.141Z,97564.70
2018-08-04T01:03:48.624Z,97562.98
2018-08-04T01:06:17.090Z,97560.41
2018-08-04T01:08:45.545Z,97563.41
2018-08-04T01:11:14.003Z,97550.48
2018-08-04T01:13:42.540Z,97560.84
2018-08-04T01:16:10.996Z,97566.00
2018-08-04T01:18:39.449Z,97566.88
2018-08-04T01:21:08.040Z,97558.68
2018-08-04T01:23:36.508Z,97560.00
2018-08-04T01:26:05.024Z,97554.39
2018-08-04T01:28:33.504Z,97558.72
2018-08-04T01:31:01.991Z,97561.30
2018-08-04T01:33:30.465Z,97559.13
2018-08-04T01:35:58.963Z,97551.39
2018-08-04T01:38:27.404Z,97556.55
2018-08-04T01:40:55.924Z,97549.68
2018-08-04T01:43:24.384Z,97549.67
2018-08-04T01:45:52.856Z,97547.50
2018-08-04T01:48:21.303Z,97552.27
2018-08-04T01:50:49.776Z,97546.22
2018-08-04T01:53:18.276Z,97544.06
2018-08-04T01:55:46.761Z,97548.80
2018-08-04T01:58:15.217Z,97544.51
2018-08-04T02:00:43.671Z,97549.22
2018-08-04T02:03:12.221Z,97545.34
2018-08-04T02:05:40.684Z,97547.92
2018-08-04T02:08:09.147Z,97546.63
2018-08-04T02:10:37.595Z,97547.92
2018-08-04T02:13:06.104Z,97553.08
2018-08-04T02:15:34.736Z,97548.38
2018-08-04T02:18:03.209Z,97542.76
2018-08-04T02:20:31.670Z,97546.63
2018-08-04T02:23:00.162Z,97549.20
2018-08-04T02:25:28.624Z,97545.33
2018-08-04T02:27:57.064Z,97531.98
2018-08-04T02:30:25.600Z,97542.76
2018-08-04T02:32:54.072Z,97538.46
2018-08-04T02:35:22.520Z,97528.97
2018-08-04T02:37:50.985Z,97541.92
2018-08-04T02:40:19.436Z,97535.88
2018-08-04T02:42:48.021Z,97533.71
2018-08-04T02:45:16.496Z,97532.88
2018-08-04T02:47:44.957Z,97528.54
2018-08-04T02:50:13.408Z,97536.74
2018-08-04T02:52:41.899Z,97535.00
2018-08-04T02:55:10.371Z,97537.16
2018-08-04T02:57:38.883Z,97537.16
2018-08-04T03:00:07.412Z,97532.88
2018-08-04T03:02:35.912Z,97536.30
2018-08-04T03:05:04.363Z,97537.16
2018-08-04T03:07:32.932Z,97533.70
2018-08-04T03:10:01.416Z,97532.41
2018-08-04T03:12:29.878Z,97537.16
2018-08-04T03:14:58.371Z,97532.00
2018-08-04T03:17:26.835Z,97541.44
2018-08-04T03:19:55.287Z,97534.14
2018-08-04T03:22:23.762Z,97535.44
2018-08-04T03:24:52.256Z,97533.70
2018-08-04T03:27:20.712Z,97536.74
2018-08-04T03:29:49.181Z,97542.75
2018-08-04T03:32:17.636Z,97544.91
2018-08-04T03:34:46.103Z,97541.91
2018-08-04T03:37:15.076Z,97539.74
2018-08-04T03:39:43.607Z,97545.79
2018-08-04T03:42:12.156Z,97522.47
2018-08-04T03:44:40.648Z,97546.20
2018-08-04T03:47:09.083Z,97544.89
2018-08-04T03:49:37.538Z,97545.33
2018-08-04T03:52:05.992Z,97542.75
2018-08-04T03:54:34.443Z,97547.07
2018-08-04T03:57:02.953Z,97544.48
2018-08-04T03:59:31.457Z,97543.61
2018-08-04T04:01:59.911Z,97547.07
2018-08-04T04:04:28.412Z,97544.91
2018-08-04T04:06:56.894Z,97549.19
2018-08-04T04:09:25.352Z,97541.90
2018-08-04T04:11:54.292Z,97550.48
2018-08-04T04:14:22.743Z,97545.30
2018-08-04T04:16:51.204Z,97554.35
2018-08-04T04:19:19.704Z,97559.96
2018-08-04T04:21:48.281Z,97562.09
2018-08-04T04:24:16.732Z,97559.52
2018-08-04T04:26:45.211Z,97560.80
2018-08-04T04:29:13.664Z,97562.10
2018-08-04T04:31:42.143Z,97565.13
2018-08-04T04:34:10.596Z,97564.67
2018-08-04T04:36:39.082Z,97560.38
2018-08-04T04:39:09.727Z,97565.55
2018-08-04T04:41:38.539Z,97570.70
2018-08-04T04:44:07.004Z,97568.13
2018-08-04T04:46:38.534Z,97568.11
2018-08-04T04:49:08.576Z,97580.61
2018-08-04T04:51:37.051Z,97587.11
2018-08-04T04:54:05.852Z,97581.45
2018-08-04T04:56:34.581Z,97578.87
2018-08-04T04:59:03.043Z,97582.78
2018-08-04T05:01:31.574Z,97581.49
2018-08-04T05:04:00.053Z,97584.08
2018-08-04T05:06:28.735Z,97580.66
2018-08-04T05:08:57.348Z,97557.34
2018-08-04T05:11:26.036Z,97581.94
2018-08-04T05:13:54.716Z,97587.52
2018-08-04T05:16:23.174Z,97586.65
2018-08-04T05:18:51.628Z,97582.78
2018-08-04T05:21:20.112Z,97580.64
2018-08-04T05:23:48.576Z,97584.48
2018-08-04T05:26:17.028Z,97587.47
2018-08-04T05:28:45.512Z,97588.33
2018-08-04T05:31:13.980Z,97587.45
2018-08-04T05:33:42.439Z,97593.49
2018-08-04T05:36:10.896Z,97591.74
2018-08-04T05:38:39.348Z,97598.66
2018-08-04T05:41:07.808Z,97596.07
2018-08-04T05:43:36.334Z,97599.50
2018-08-04T05:46:04.822Z,97598.20
2018-08-04T05:48:33.309Z,97595.20
2018-08-04T05:51:01.763Z,97601.66
2018-08-04T05:53:30.231Z,97597.36
2018-08-04T05:55:58.679Z,97593.03
2018-08-04T05:58:27.164Z,97594.33
2018-08-04T06:00:55.628Z,97598.20
2018-08-04T06:03:24.154Z,97600.36
2018-08-04T06:05:53.456Z,97601.64
2018-08-04T06:08:21.915Z,97603.80
2018-08-04T06:10:50.372Z,97608.95
2018-08-04T06:13:18.831Z,97605.09
2018-08-04T06:15:47.291Z,97606.80
2018-08-04T06:18:15.760Z,97610.25
2018-08-04T06:20:44.263Z,97608.08
2018-08-04T06:23:12.716Z,97609.38
2018-08-04T06:25:41.184Z,97605.50
2018-08-04T06:28:09.659Z,97603.33
2018-08-04T06:30:38.191Z,97605.94
2018-08-04T06:33:06.600Z,97597.77
2018-08-04T06:35:35.102Z,97599.94
2018-08-04T06:38:03.561Z,97600.36
2018-08-04T06:40:32.052Z,97598.64
2018-08-04T06:43:00.624Z,97595.61
2018-08-04T06:45:29.093Z,97598.19
2018-08-04T06:47:57.696Z,97596.06
2018-08-04T06:50:26.181Z,97600.34
2018-08-04T06:52:54.724Z,97595.61
2018-08-04T06:55:23.205Z,97599.91
2018-08-04T06:57:51.684Z,97597.75
2018-08-04T07:00:20.164Z,97599.91
2018-08-04T07:02:48.628Z,97605.06
2018-08-04T07:05:17.085Z,97597.73
2018-08-04T07:07:46.053Z,97598.14
2018-08-04T07:10:14.518Z,97602.02
2018-08-04T07:12:42.992Z,97601.59
2018-08-04T07:15:11.448Z,97602.89
2018-08-04T07:17:39.903Z,97603.30
2018-08-04T07:20:08.367Z,97600.30
2018-08-04T07:22:37.039Z,97597.73
2018-08-04T07:25:05.579Z,97595.14
2018-08-04T07:27:34.035Z,97596.01
2018-08-04T07:30:02.520Z,97594.26
2018-08-04T07:32:31.007Z,97598.58
2018-08-04T07:34:59.465Z,97599.87
2018-08-04T07:37:27.916Z,97599.42
2018-08-04T07:39:56.369Z,97601.58
2018-08-04T07:42:24.815Z,97591.25
2018-08-04T07:44:53.268Z,97594.25
2018-08-04T07:47:22.172Z,97594.69
2018-08-04T07:49:50.729Z,97594.25
2018-08-04T07:52:19.224Z,97592.95
2018-08-04T07:54:47.814Z,97590.36
2018-08-04T07:57:16.273Z,97593.02
2018-08-04T07:59:44.731Z,97596.91
2018-08-04T08:02:13.173Z,97595.20
2018-08-04T08:04:41.635Z,97600.37
2018-08-04T08:07:10.097Z,97602.54
2018-08-04T08:09:38.616Z,97600.37
2018-08-04T08:12:07.073Z,97600.37
2018-08-04T08:14:35.602Z,97601.23
2018-08-04T08:17:04.066Z,97604.66
2018-08-04T08:19:32.613Z,97597.78
2018-08-04T08:22:01.032Z,97599.07
2018-08-04T08:24:29.515Z,97597.78
2018-08-04T08:26:57.981Z,97602.94
2018-08-04T08:29:26.454Z,97599.48
2018-08-04T08:31:54.914Z,97596.91
2018-08-04T08:34:23.350Z,97594.78
2018-08-04T08:36:51.804Z,97594.78
2018-08-04T08:39:20.268Z,97592.63
2018-08-04T08:41:48.753Z,97591.34
2018-08-04T08:44:17.216Z,97589.19
2018-08-04T08:46:45.688Z,97582.73
2018-08-04T08:49:14.177Z,97582.31
2018-08-04T08:51:42.623Z,97585.30
2018-08-04T08:54:11.212Z,97580.59
2018-08-04T08:56:39.551Z,97576.72
2018-08-04T08:59:08.029Z,97576.27
2018-08-04T09:01:36.489Z,97575.43
2018-08-04T09:04:04.939Z,97574.15
2018-08-04T09:06:33.412Z,97575.44
2018-08-04T09:09:02.481Z,97573.69
2018-08-04T09:11:30.976Z,97573.69
2018-08-04T09:13:59.423Z,97578.44
2018-08-04T09:16:27.921Z,97572.86
2018-08-04T09:18:56.401Z,97570.70
2018-08-04T09:21:24.863Z,97574.98
2018-08-04T09:23:53.344Z,97576.27
2018-08-04T09:26:21.815Z,97573.28
2018-08-04T09:28:50.274Z,97575.45
2018-08-04T09:31:18.744Z,97578.89
2018-08-04T09:33:47.252Z,97577.16
2018-08-04T09:36:15.728Z,97573.28
2018-08-04T09:38:44.198Z,97565.95
2018-08-04T09:41:12.693Z,97531.42
2018-08-04T09:43:41.207Z,97560.38
2018-08-04T09:46:09.678Z,97570.28
2018-08-04T09:48:38.148Z,97568.98
2018-08-04T09:51:06.911Z,97564.25
2018-08-04T09:53:35.572Z,97566.45
2018-08-04T09:56:04.068Z,97563.84
2018-08-04T09:58:32.568Z,97566.42
2018-08-04T10:01:06.297Z,97565.98
2018-08-04T10:03:34.796Z,97562.10
2018-08-04T10:06:03.251Z,97564.69
2018-08-04T10:08:31.729Z,97564.67
2018-08-04T10:11:00.201Z,97568.56
2018-08-04T10:13:28.672Z,97566.86
2018-08-04T10:15:57.183Z,97566.84
2018-08-04T10:18:25.649Z,97563.38
2018-08-04T10:20:54.153Z,97560.81
2018-08-04T10:23:22.628Z,97556.50
2018-08-04T10:25:51.100Z,97561.24
2018-08-04T10:28:19.596Z,97560.38
2018-08-04T10:30:48.068Z,97562.95
2018-08-04T10:33:16.748Z,97563.38
2018-08-04T10:35:45.225Z,97553.05
2018-08-04T10:38:13.713Z,97555.21
2018-08-04T10:40:42.177Z,97548.76
2018-08-04T10:43:10.880Z,97547.47
2018-08-04T10:45:39.588Z,97551.34
2018-08-04T10:48:08.058Z,97547.88
2018-08-04T10:50:36.521Z,97540.59
2018-08-04T10:53:04.989Z,97542.30
2018-08-04T10:55:33.464Z,97535.85
2018-08-04T10:58:01.931Z,97542.30
2018-08-04T11:00:30.580Z,97532.84
2018-08-04T11:02:59.059Z,97533.27
2018-08-04T11:05:27.549Z,97534.98
2018-08-04T11:07:56.103Z,97535.44
2018-08-04T11:10:24.602Z,97530.27
2018-08-04T11:12:53.064Z,97526.40
2018-08-04T11:15:21.538Z,97521.66
2018-08-04T11:17:50.016Z,97519.50
2018-08-04T11:20:18.480Z,97521.66
2018-08-04T11:22:46.961Z,97514.78
2018-08-04T11:25:15.444Z,97518.21
2018-08-04T11:27:43.929Z,97515.20
2018-08-04T11:30:12.397Z,97522.09
2018-08-04T11:32:40.860Z,97511.77
2018-08-04T11:35:09.376Z,97515.22
2018-08-04T11:37:37.865Z,97507.89
2018-08-04T11:40:06.410Z,97498.44
2018-08-04T11:42:34.867Z,97498.44
2018-08-04T11:45:03.324Z,97503.59
2018-08-04T11:47:31.781Z,97507.89
2018-08-04T11:50:00.240Z,97508.34
2018-08-04T11:52:28.712Z,97503.18
2018-08-04T11:54:57.203Z,97505.77
2018-08-04T11:57:25.665Z,97497.56
2018-08-04T11:59:54.139Z,97504.02
2018-08-04T12:02:22.608Z,97494.99
2018-08-04T12:04:51.063Z,97491.98
2018-08-04T12:07:19.582Z,97491.12
2018-08-04T12:09:48.052Z,97491.57
2018-08-04T12:12:16.511Z,97494.99
2018-08-04T12:14:44.985Z,97495.00
2018-08-04T12:17:13.464Z,97489.00
2018-08-04T12:19:41.929Z,97492.42
2018-08-04T12:22:10.387Z,97491.13
2018-08-04T12:24:38.876Z,97488.52
2018-08-04T12:27:07.430Z,97488.53
2018-08-04T12:29:35.898Z,97494.16
2018-08-04T12:32:04.389Z,97491.58
2018-08-04T12:34:32.858Z,97495.45
2018-08-04T12:37:01.415Z,97490.29
2018-08-04T12:39:29.885Z,97487.71
2018-08-04T12:41:58.353Z,97478.67
2018-08-04T12:44:26.812Z,97487.26
2018-08-04T12:46:55.335Z,97479.97
2018-08-04T12:49:23.840Z,97478.67
2018-08-04T12:51:52.313Z,97475.64
2018-08-04T12:54:20.831Z,97489.00
2018-08-04T12:56:49.280Z,97472.22
2018-08-04T12:59:17.750Z,97463.60
2018-08-04T13:01:46.232Z,97470.05
2018-08-04T13:04:14.716Z,97459.73
2018-08-04T13:06:43.204Z,97468.34
2018-08-04T13:09:12.076Z,97472.64
2018-08-04T13:11:40.542Z,97475.22
2018-08-04T13:14:09.013Z,97479.09
2018-08-04T13:16:37.481Z,97491.59
2018-08-04T13:19:06.169Z,97485.96
2018-08-04T13:21:34.635Z,97492.87
2018-08-04T13:24:03.116Z,97493.72
2018-08-04T13:26:31.587Z,97493.72
2018-08-04T13:29:00.072Z,97489.42
2018-08-04T13:31:28.531Z,97497.17
2018-08-04T13:33:56.996Z,97485.55
2018-08-04T13:36:25.467Z,97492.00
2018-08-04T13:38:53.944Z,97484.27
2018-08-04T13:41:22.409Z,97482.98
2018-08-04T13:43:50.876Z,97475.22
2018-08-04T13:46:19.600Z,97469.64
2018-08-04T13:48:48.106Z,97458.02
2018-08-04T13:51:16.579Z,97461.44
2018-08-04T13:53:45.062Z,97458.02
2018-08-04T13:56:13.532Z,97451.11
2018-08-04T13:58:42.035Z,97444.66
2018-08-04T14:01:10.516Z,97445.11
2018-08-04T14:03:38.988Z,97443.82
2018-08-04T14:06:07.596Z,97451.11
2018-08-04T14:08:36.420Z,97447.69
2018-08-04T14:11:04.900Z,97442.94
2018-08-04T14:13:33.364Z,97454.14
2018-08-04T14:16:01.861Z,97450.69
2018-08-04T14:18:30.426Z,97439.49
2018-08-04T14:20:58.859Z,97439.07
2018-08-04T14:23:27.353Z,97439.49
2018-08-04T14:25:55.857Z,97429.16
2018-08-04T14:28:24.416Z,97425.30
2018-08-04T14:30:52.829Z,97423.16
2018-08-04T14:33:21.307Z,97416.26
2018-08-04T14:35:49.906Z,97420.58
2018-08-04T14:38:18.384Z,97406.38
2018-08-04T14:40:46.856Z,97408.09
2018-08-04T14:43:15.333Z,97413.27
2018-08-04T14:45:43.801Z,97412.38
2018-08-04T14:48:12.288Z,97405.51
2018-08-04T14:50:40.765Z,97396.89
2018-08-04T14:53:09.401Z,97405.92
2018-08-04T14:55:37.897Z,97408.09
2018-08-04T14:58:06.357Z,97409.38
2018-08-04T15:00:34.824Z,97416.26
2018-08-04T15:03:03.296Z,97410.67
2018-08-04T15:05:31.853Z,97412.39
2018-08-04T15:08:00.375Z,97416.72
2018-08-04T15:10:28.927Z,97424.45
2018-08-04T15:12:57.464Z,97424.46
2018-08-04T15:15:25.953Z,97428.34
2018-08-04T15:17:54.429Z,97425.30
2018-08-04T15:20:22.913Z,97433.05
2018-08-04T15:22:51.512Z,97432.20
2018-08-04T15:25:20.000Z,97421.42
2018-08-04T15:27:48.572Z,97417.55
2018-08-04T15:30:17.043Z,97418.86
2018-08-04T15:32:45.542Z,97421.03
2018-08-04T15:35:14.049Z,97421.91
2018-08-04T15:37:42.548Z,97425.31
2018-08-04T15:40:11.025Z,97419.73
2018-08-04T15:42:39.535Z,97414.16
2018-08-04T15:45:08.009Z,97410.69
2018-08-04T15:47:36.553Z,97411.55
2018-08-04T15:50:05.797Z,97403.36
2018-08-04T15:52:34.449Z,97408.53
2018-08-04T15:55:03.120Z,97406.41
2018-08-04T15:57:31.621Z,97405.12
2018-08-04T16:00:00.152Z,97401.66
2018-08-04T16:02:28.623Z,97402.53
2018-08-04T16:04:57.145Z,97401.24
2018-08-04T16:07:25.639Z,97400.80
2018-08-04T16:09:54.625Z,97403.38
2018-08-04T16:12:23.112Z,97409.41
2018-08-04T16:14:51.584Z,97411.13
2018-08-04T16:17:20.064Z,97405.12
2018-08-04T16:19:48.547Z,97401.24
2018-08-04T16:22:17.032Z,97405.12
2018-08-04T16:24:45.833Z,97400.37
2018-08-04T16:27:14.327Z,97396.50
2018-08-04T16:29:42.839Z,97401.66
2018-08-04T16:32:11.324Z,97403.38
2018-08-04T16:34:39.856Z,97402.08
2018-08-04T16:37:08.327Z,97402.95
2018-08-04T16:39:36.877Z,97410.28
2018-08-04T16:42:05.521Z,97411.58
2018-08-04T16:44:34.003Z,97422.33
2018-08-04T16:47:02.524Z,97427.07
2018-08-04T16:49:31.010Z,97428.78
2018-08-04T16:51:59.493Z,97428.78
2018-08-04T16:54:27.984Z,97418.03
2018-08-04T16:56:56.463Z,97423.61
2018-08-04T16:59:25.017Z,97430.07
2018-08-04T17:01:53.501Z,97425.33
2018-08-04T17:04:22.012Z,97419.74
2018-08-04T17:06:50.509Z,97423.61
2018-08-04T17:09:19.061Z,97423.61
2018-08-04T17:11:47.524Z,97422.33
2018-08-04T17:14:15.998Z,97424.04
2018-08-04T17:16:44.498Z,97426.20
2018-08-04T17:19:13.000Z,97431.37
2018-08-04T17:21:41.497Z,97430.50
2018-08-04T17:24:09.981Z,97432.66
2018-08-04T17:26:38.483Z,97428.78
2018-08-04T17:29:06.944Z,97427.49
2018-08-04T17:31:35.409Z,97423.20
2018-08-04T17:34:03.871Z,97420.61
2018-08-04T17:36:32.353Z,97422.33
2018-08-04T17:39:00.848Z,97424.04
2018-08-04T17:41:29.324Z,97421.45
2018-08-04T17:43:57.796Z,97415.00
2018-08-04T17:46:26.265Z,97411.58
2018-08-04T17:48:54.734Z,97408.13
2018-08-04T17:51:23.200Z,97386.56
2018-08-04T17:53:51.682Z,97408.55
2018-08-04T17:56:20.188Z,97408.54
2018-08-04T17:58:48.712Z,97408.55
2018-08-04T18:01:17.188Z,97409.42
2018-08-04T18:03:45.655Z,97412.00
2018-08-04T18:06:14.119Z,97409.84
2018-08-04T18:08:42.621Z,97412.00
2018-08-04T18:11:11.093Z,97408.55
2018-08-04T18:13:39.599Z,97409.41
2018-08-04T18:16:08.084Z,97403.83
2018-08-04T18:18:36.564Z,97408.55
2018-08-04T18:21:05.064Z,97413.71
2018-08-04T18:23:33.565Z,97409.84
2018-08-04T18:26:02.046Z,97420.61
2018-08-04T18:28:30.527Z,97428.77
2018-08-04T18:30:59.049Z,97436.11
2018-08-04T18:33:27.549Z,97437.39
2018-08-04T18:35:56.041Z,97436.11
2018-08-04T18:38:24.533Z,97429.20
2018-08-04T18:40:53.004Z,97441.69
2018-08-04T18:43:21.495Z,97444.27
2018-08-04T18:45:49.973Z,97452.44
2018-08-04T18:48:18.454Z,97458.45
2018-08-04T18:50:46.931Z,97462.77
2018-08-04T18:53:15.401Z,97472.67
2018-08-04T18:55:43.925Z,97480.00
2018-08-04T18:58:12.426Z,97476.13
2018-08-04T19:00:40.903Z,97482.12
2018-08-04T19:03:09.426Z,97485.58
2018-08-04T19:05:37.887Z,97483.42
2018-08-04T19:08:06.392Z,97484.29
2018-08-04T19:10:34.946Z,97488.16
2018-08-04T19:13:03.411Z,97491.63
2018-08-04T19:15:31.888Z,97496.32
2018-08-04T19:18:00.368Z,97498.89
2018-08-04T19:20:28.864Z,97496.77
2018-08-04T19:22:57.329Z,97501.05
2018-08-04T19:25:25.815Z,97476.04
2018-08-04T19:27:54.310Z,97483.80
2018-08-04T19:30:22.774Z,97498.05
2018-08-04T19:32:51.281Z,97473.88
2018-08-04T19:35:19.755Z,97496.31
2018-08-04T19:37:48.215Z,97498.92
2018-08-04T19:40:16.750Z,97498.53
2018-08-04T19:42:45.237Z,97501.99
2018-08-04T19:45:13.716Z,97499.37
2018-08-04T19:47:42.304Z,97506.64
2018-08-04T19:50:10.822Z,97512.26
2018-08-04T19:52:39.296Z,97509.67
2018-08-04T19:55:07.789Z,97505.78
2018-08-04T19:57:36.252Z,97513.95
2018-08-04T20:00:05.467Z,97516.54
2018-08-04T20:02:33.973Z,97510.50
2018-08-04T20:05:02.504Z,97509.22
2018-08-04T20:07:30.989Z,97507.08
2018-08-04T20:09:59.533Z,97508.78
2018-08-04T20:12:28.016Z,97510.50
2018-08-04T20:14:56.492Z,97513.95
2018-08-04T20:17:24.990Z,97506.21
2018-08-04T20:19:53.455Z,97506.20
2018-08-04T20:22:21.956Z,97509.66
2018-08-04T20:24:50.440Z,97507.91
2018-08-04T20:27:18.917Z,97506.20
2018-08-04T20:29:47.412Z,97512.23
2018-08-04T20:32:15.889Z,97509.20
2018-08-04T20:34:44.439Z,97508.37
2018-08-04T20:37:12.959Z,97512.23
2018-08-04T20:39:41.453Z,97514.81
2018-08-04T20:42:09.928Z,97511.36
2018-08-04T20:44:38.470Z,97502.73
2018-08-04T20:47:06.965Z,97503.19
2018-08-04T20:49:35.439Z,97501.91
2018-08-04T20:52:03.912Z,97496.74
2018-08-04T20:54:32.385Z,97496.30
2018-08-04T20:57:00.921Z,97495.88
2018-08-04T20:59:29.392Z,97496.31
2018-08-04T21:02:00.261Z,97492.02
2018-08-04T21:04:29.841Z,97492.44
2018-08-04T21:06:58.352Z,97495.88
2018-08-04T21:09:26.832Z,97490.72
2018-08-04T21:11:56.196Z,97496.30
2018-08-04T21:14:25.778Z,97487.72
2018-08-04T21:16:55.224Z,97494.17
2018-08-04T21:19:24.455Z,97488.55
2018-08-04T21:21:52.923Z,97485.55
2018-08-04T21:24:22.697Z,97481.69
2018-08-04T21:26:52.135Z,97486.44
2018-08-04T21:29:20.996Z,97483.84
2018-08-04T21:31:49.465Z,97483.86
2018-08-04T21:34:17.931Z,97484.28
2018-08-04T21:36:46.433Z,97482.59
2018-08-04T21:39:16.147Z,97482.59
2018-08-04T21:41:45.473Z,97485.16
2018-08-04T21:44:14.374Z,97487.30
2018-08-04T21:46:51.168Z,97490.33
2018-08-04T21:49:20.161Z,97498.08
2018-08-04T21:51:49.841Z,97498.08
2018-08-04T21:54:19.920Z,97498.08
2018-08-04T21:56:47.812Z,97498.49
2018-08-04T21:59:16.267Z,97504.08
2018-08-04T22:01:50.083Z,97499.78
2018-08-04T22:04:18.480Z,97504.08
2018-08-04T22:08:02.201Z,97502.36
2018-08-04T22:10:30.681Z,97494.20
2018-08-04T22:12:59.191Z,97492.91
2018-08-04T22:15:27.691Z,97489.03
2018-08-04T22:17:56.160Z,97487.74
2018-08-04T22:20:25.238Z,97495.48
2018-08-04T22:22:53.919Z,97496.79
2018-08-04T22:25:25.781Z,97498.91
2018-08-04T22:27:54.676Z,97503.23
2018-08-04T22:30:23.556Z,97500.20
2018-08-04T22:32:52.368Z,97501.95
2018-08-04T22:35:21.183Z,97503.65
2018-08-04T22:37:49.648Z,97503.65
2018-08-04T22:40:18.994Z,97508.41
2018-08-04T22:42:47.456Z,97506.66
2018-08-04T22:46:13.979Z,97501.95
2018-08-04T22:48:49.163Z,97501.48
2018-08-04T22:51:22.979Z,97492.89
2018-08-04T22:53:51.455Z,97498.06
2018-08-04T22:56:19.952Z,97496.78
2018-08-04T22:58:48.429Z,97491.16
2018-08-04T23:01:16.904Z,97495.48
2018-08-04T23:06:13.821Z,97494.20
2018-08-04T23:08:42.275Z,97495.48
2018-08-04T23:11:10.736Z,97497.62
2018-08-04T23:13:39.236Z,97494.59
2018-08-04T23:16:07.691Z,97490.30
2018-08-04T23:18:36.159Z,97492.87
2018-08-04T23:21:04.664Z,97499.75
2018-08-04T23:23:33.128Z,97501.91
2018-08-04T23:26:01.613Z,97504.03
2018-08-04T23:28:30.109Z,97505.78
2018-08-04T23:30:58.576Z,97503.20
2018-08-04T23:33:27.040Z,97499.33
2018-08-04T23:35:55.490Z,97501.91
2018-08-04T23:38:23.949Z,97503.20
2018-08-04T23:40:52.425Z,97504.91
2018-08-04T23:43:20.967Z,97496.30
2018-08-04T23:45:49.508Z,97495.88
2018-08-04T23:48:17.964Z,97502.34
2018-08-04T23:50:46.448Z,97496.30
2018-08-04T23:53:14.913Z,97495.45
2018-08-04T23:55:43.415Z,97495.88
2018-08-04T23:58:11.889Z,97496.30
